Time;durP1;ratioP1;P1;durP2;ratioP2;P2;SDS_P1;SDS_P2;PMS_P1;PMS_P2;Temp;Humidity;BMP_temperature;BMP_pressure;BME280_temperature;BME280_humidity;BME280_pressure;Samples;Min_cycle;Max_cycle;Signal;HPM_P1;HPM_P2
2024/03/12 00:00:35;;;;;;;83.60;44.13;;;10.20;99.90;;;;;;5013794;28;20486;-76
2024/03/12 00:03:01;;;;;;;97.15;48.50;;;10.20;99.90;;;;;;5014622;28;20105;-76
2024/03/12 00:05:28;;;;;;;93.20;44.90;;;10.20;99.90;;;;;;5013158;28;20204;-77
2024/03/12 00:07:54;;;;;;;88.05;45.03;;;10.20;99.90;;;;;;5013870;28;20034;-77
2024/03/12 00:10:19;;;;;;;85.10;42.22;;;10.30;99.90;;;;;;5013440;28;20036;-78
2024/03/12 00:12:51;;;;;;;85.97;43.28;;;10.30;99.90;;;;;;5013796;28;20441;-77
2024/03/12 00:15:22;;;;;;;80.43;41.38;;;10.40;99.90;;;;;;5015260;28;20175;-77
2024/03/12 00:17:49;;;;;;;75.28;39.38;;;10.30;99.90;;;;;;5016519;28;20041;-77
2024/03/12 00:20:39;;;;;;;80.75;41.17;;;10.30;99.90;;;;;;5019068;28;20030;-77
2024/03/12 00:23:05;;;;;;;82.43;40.00;;;10.30;99.90;;;;;;5015687;28;20030;-76
2024/03/12 00:25:31;;;;;;;72.43;36.40;;;10.30;99.90;;;;;;5016493;28;20153;-76
2024/03/12 00:27:57;;;;;;;69.40;36.17;;;10.30;99.90;;;;;;5013088;28;20451;-76
2024/03/12 00:30:27;;;;;;;69.13;34.42;;;10.10;99.90;;;;;;5017062;28;20514;-77
2024/03/12 00:33:00;;;;;;;67.13;35.80;;;10.10;99.90;;;;;;5020670;28;20028;-77
2024/03/12 00:35:36;;;;;;;64.20;32.83;;;10.10;99.90;;;;;;5019393;28;20037;-77
2024/03/12 00:38:04;;;;;;;60.97;32.88;;;10.10;99.90;;;;;;5016416;28;20052;-77
2024/03/12 00:40:40;;;;;;;64.88;33.28;;;10.00;99.90;;;;;;5020600;28;20494;-77
2024/03/12 00:43:07;;;;;;;59.10;33.25;;;10.00;99.90;;;;;;5023169;28;20450;-77
2024/03/12 00:45:39;;;;;;;65.85;34.42;;;10.10;99.90;;;;;;5016424;28;20052;-77
2024/03/12 00:48:06;;;;;;;60.90;32.40;;;10.10;99.90;;;;;;5019932;28;20109;-77
2024/03/12 00:50:33;;;;;;;64.30;33.63;;;10.10;99.90;;;;;;5024589;28;20045;-77
2024/03/12 00:53:01;;;;;;;58.83;32.05;;;10.10;99.90;;;;;;5017333;28;20017;-77
2024/03/12 00:55:28;;;;;;;62.58;32.08;;;10.10;99.90;;;;;;5000084;28;20025;-77
2024/03/12 00:57:55;;;;;;;55.95;30.02;;;10.10;99.90;;;;;;5015367;28;20378;-77
2024/03/12 01:00:28;;;;;;;66.30;33.28;;;10.00;99.90;;;;;;5019335;28;20034;-77
2024/03/12 01:02:58;;;;;;;58.55;31.20;;;10.00;99.90;;;;;;5021295;28;20024;-77
2024/03/12 01:05:25;;;;;;;62.35;30.95;;;10.00;99.90;;;;;;5020057;28;20037;-76
2024/03/12 01:07:53;;;;;;;59.67;30.00;;;10.00;99.90;;;;;;5017118;28;20018;-77
2024/03/12 01:10:20;;;;;;;53.33;29.35;;;9.90;99.90;;;;;;5016404;28;20018;-77
2024/03/12 01:12:49;;;;;;;58.60;29.80;;;10.00;99.90;;;;;;5015895;28;20022;-77
2024/03/12 01:15:15;;;;;;;50.20;28.50;;;10.00;99.90;;;;;;5016119;28;20022;-77
2024/03/12 01:17:42;;;;;;;53.63;29.13;;;10.00;99.90;;;;;;5015607;28;20477;-77
2024/03/12 01:20:09;;;;;;;47.42;26.67;;;9.90;99.90;;;;;;4997215;28;20049;-77
2024/03/12 01:22:38;;;;;;;55.10;29.63;;;9.90;99.90;;;;;;5016270;28;20086;-77
2024/03/12 01:25:07;;;;;;;58.33;30.33;;;9.90;99.90;;;;;;5014357;28;20044;-77
2024/03/12 01:27:37;;;;;;;56.03;29.27;;;9.90;99.90;;;;;;5000106;28;20022;-77
2024/03/12 01:30:06;;;;;;;55.03;29.73;;;9.90;99.90;;;;;;5013712;28;20488;-77
2024/03/12 01:32:38;;;;;;;54.88;30.13;;;9.90;99.90;;;;;;5012549;28;20399;-77
2024/03/12 01:35:08;;;;;;;58.38;30.67;;;10.00;99.90;;;;;;5017001;28;20029;-76
2024/03/12 01:37:41;;;;;;;57.40;31.15;;;10.00;99.90;;;;;;5012130;28;20037;-77
2024/03/12 01:40:19;;;;;;;62.55;30.40;;;10.00;99.90;;;;;;5018539;28;20048;-76
2024/03/12 01:42:48;;;;;;;61.42;30.65;;;9.90;99.90;;;;;;5016047;28;20068;-76
2024/03/12 01:45:20;;;;;;;67.25;33.03;;;10.00;99.90;;;;;;5018024;28;20053;-76
2024/03/12 01:47:47;;;;;;;64.00;31.48;;;10.00;99.90;;;;;;5013764;28;20085;-75
2024/03/12 01:50:14;;;;;;;71.53;34.58;;;9.90;99.90;;;;;;5015689;28;20152;-75
2024/03/12 01:52:43;;;;;;;67.00;32.20;;;10.00;99.90;;;;;;4999473;28;20033;-76
2024/03/12 01:55:18;;;;;;;67.93;33.00;;;10.10;99.90;;;;;;5017642;28;20558;-76
2024/03/12 01:57:45;;;;;;;64.00;32.47;;;10.00;99.90;;;;;;5015181;28;20022;-76
2024/03/12 02:00:13;;;;;;;64.65;33.60;;;10.00;99.90;;;;;;5013108;28;20065;-75
2024/03/12 02:02:43;;;;;;;63.35;33.40;;;10.00;99.90;;;;;;5015678;28;20049;-75
2024/03/12 02:05:12;;;;;;;68.47;35.40;;;10.00;99.90;;;;;;5016035;28;20475;-75
2024/03/12 02:07:45;;;;;;;69.30;34.20;;;10.00;99.90;;;;;;5013420;28;20033;-75
2024/03/12 02:10:13;;;;;;;64.50;32.63;;;9.80;99.90;;;;;;5018293;28;20026;-75
2024/03/12 02:12:39;;;;;;;61.50;34.38;;;9.90;99.90;;;;;;5018694;28;20045;-75
2024/03/12 02:15:05;;;;;;;71.47;34.45;;;9.90;99.90;;;;;;5015911;28;20026;-74
2024/03/12 02:17:31;;;;;;;67.93;34.63;;;9.90;99.90;;;;;;5014812;28;20478;-75
2024/03/12 02:19:57;;;;;;;71.65;35.47;;;9.90;99.90;;;;;;4994513;28;20022;-76
2024/03/12 02:22:23;;;;;;;71.25;35.75;;;10.00;99.90;;;;;;5016116;28;20025;-76
2024/03/12 02:25:06;;;;;;;74.43;34.78;;;10.10;99.90;;;;;;5015014;28;20072;-76
2024/03/12 02:27:32;;;;;;;77.30;34.22;;;10.10;99.90;;;;;;4995541;28;20026;-77
2024/03/12 02:29:58;;;;;;;73.40;34.05;;;10.10;99.90;;;;;;5014227;28;20025;-77
2024/03/12 02:32:24;;;;;;;65.88;33.08;;;10.10;99.90;;;;;;4993547;28;20030;-77
2024/03/12 02:34:50;;;;;;;70.47;36.30;;;10.10;99.90;;;;;;5013966;28;20026;-77
2024/03/12 02:37:16;;;;;;;80.35;36.60;;;10.10;99.90;;;;;;5011238;28;20486;-77
2024/03/12 02:39:41;;;;;;;73.18;34.47;;;10.10;99.90;;;;;;5015313;28;20041;-76
2024/03/12 02:42:08;;;;;;;65.00;32.80;;;10.10;99.90;;;;;;5012949;28;20014;-76
2024/03/12 02:44:35;;;;;;;67.15;31.80;;;10.10;99.90;;;;;;5012639;28;20022;-76
2024/03/12 02:47:02;;;;;;;59.05;30.65;;;10.00;99.90;;;;;;5011646;28;20033;-76
2024/03/12 02:49:29;;;;;;;58.92;31.67;;;9.90;99.90;;;;;;5015114;28;20025;-76
2024/03/12 02:51:55;;;;;;;71.38;32.13;;;10.10;99.90;;;;;;4995397;28;20065;-75
2024/03/12 02:54:21;;;;;;;60.53;32.83;;;10.00;99.90;;;;;;5013435;28;20033;-75
2024/03/12 02:56:47;;;;;;;62.58;31.42;;;10.10;99.90;;;;;;5013668;28;20022;-75
2024/03/12 02:59:13;;;;;;;54.72;29.40;;;10.00;99.90;;;;;;5013069;28;20075;-75
2024/03/12 03:01:40;;;;;;;48.25;27.60;;;10.00;99.90;;;;;;5011080;28;20030;-75
2024/03/12 03:04:08;;;;;;;43.90;24.52;;;9.90;99.90;;;;;;5012361;28;20386;-75
2024/03/12 03:06:34;;;;;;;42.30;24.60;;;9.80;99.90;;;;;;5011073;28;20073;-75
2024/03/12 03:09:00;;;;;;;46.20;23.52;;;9.80;99.90;;;;;;5009637;28;20022;-76
2024/03/12 03:11:26;;;;;;;47.13;25.67;;;9.80;99.90;;;;;;5009963;28;20367;-76
2024/03/12 03:13:51;;;;;;;42.13;23.50;;;9.80;99.90;;;;;;5009616;28;20486;-76
2024/03/12 03:16:20;;;;;;;42.30;24.20;;;9.80;99.90;;;;;;5009395;28;20033;-75
2024/03/12 03:18:46;;;;;;;45.35;24.77;;;9.80;99.90;;;;;;5011850;28;20138;-75
2024/03/12 03:21:12;;;;;;;44.65;23.98;;;9.80;99.90;;;;;;5024375;28;20505;-75
2024/03/12 03:23:41;;;;;;;46.28;23.95;;;9.80;99.90;;;;;;5008967;28;20120;-75
2024/03/12 03:26:10;;;;;;;49.20;25.55;;;9.80;99.90;;;;;;5010037;28;20044;-75
2024/03/12 03:28:36;;;;;;;49.42;28.08;;;9.70;99.90;;;;;;5009737;28;20029;-75
2024/03/12 03:31:02;;;;;;;51.65;28.55;;;9.80;99.90;;;;;;5009042;28;20018;-75
2024/03/12 03:33:28;;;;;;;50.30;26.92;;;9.80;99.90;;;;;;5011109;28;20045;-75
2024/03/12 03:35:54;;;;;;;48.33;25.10;;;9.80;99.90;;;;;;5011037;28;20071;-75
2024/03/12 03:38:20;;;;;;;52.50;28.67;;;9.70;99.90;;;;;;5008737;28;20536;-75
2024/03/12 03:40:46;;;;;;;51.22;27.40;;;9.60;99.90;;;;;;5009407;28;20029;-77
2024/03/12 03:43:13;;;;;;;55.03;29.13;;;9.60;99.90;;;;;;5011113;28;20067;-78
2024/03/12 03:45:38;;;;;;;53.30;28.38;;;9.60;99.90;;;;;;5012901;28;20399;-77
2024/03/12 03:48:05;;;;;;;65.35;30.25;;;9.70;99.90;;;;;;5011506;28;20116;-77
2024/03/12 03:50:30;;;;;;;55.67;28.48;;;9.70;99.90;;;;;;5009158;28;20022;-77
2024/03/12 03:52:56;;;;;;;58.53;28.85;;;9.70;99.90;;;;;;5013401;28;20091;-76
2024/03/12 03:55:23;;;;;;;56.80;27.73;;;9.70;99.90;;;;;;5029060;28;20051;-77
2024/03/12 03:57:52;;;;;;;59.17;29.23;;;9.70;99.90;;;;;;5030097;28;20478;-76
2024/03/12 04:00:23;;;;;;;54.90;28.98;;;9.80;99.90;;;;;;5031882;28;20021;-76
2024/03/12 04:02:49;;;;;;;58.13;31.35;;;9.80;99.90;;;;;;5032346;28;20021;-76
2024/03/12 04:05:16;;;;;;;57.38;30.10;;;9.70;99.90;;;;;;5031959;28;20091;-76
2024/03/12 04:07:43;;;;;;;66.97;31.67;;;9.70;99.90;;;;;;5035447;28;20480;-76
2024/03/12 04:10:10;;;;;;;64.82;32.35;;;9.80;99.90;;;;;;5035619;28;20025;-76
2024/03/12 04:12:44;;;;;;;68.28;32.13;;;9.80;99.90;;;;;;5036057;28;20022;-76
2024/03/12 04:15:11;;;;;;;64.60;32.28;;;9.70;99.90;;;;;;5026780;28;20044;-75
2024/03/12 04:17:37;;;;;;;63.92;32.30;;;9.60;99.90;;;;;;5021081;28;20044;-76
2024/03/12 04:20:10;;;;;;;64.07;31.58;;;9.60;99.90;;;;;;5015868;28;20026;-76
2024/03/12 04:22:38;;;;;;;75.20;33.38;;;9.70;99.90;;;;;;5015619;28;20113;-75
2024/03/12 04:25:06;;;;;;;65.07;32.72;;;9.70;99.90;;;;;;5015567;28;20101;-75
2024/03/12 04:27:35;;;;;;;66.93;32.05;;;9.70;99.90;;;;;;4998008;28;20026;-74
2024/03/12 04:30:04;;;;;;;67.63;32.15;;;9.70;99.90;;;;;;5015263;28;20026;-75
2024/03/12 04:32:30;;;;;;;70.18;33.15;;;9.70;99.90;;;;;;5015822;28;20052;-74
2024/03/12 04:34:56;;;;;;;61.88;32.05;;;9.70;99.90;;;;;;5015929;28;20462;-75
2024/03/12 04:37:22;;;;;;;69.85;31.85;;;9.70;99.90;;;;;;5015398;28;20041;-74
2024/03/12 04:39:48;;;;;;;70.97;32.42;;;9.70;99.90;;;;;;5015624;28;20030;-74
2024/03/12 04:42:14;;;;;;;64.78;33.03;;;9.70;99.90;;;;;;5013713;28;20046;-74
2024/03/12 04:44:42;;;;;;;60.20;30.40;;;9.70;99.90;;;;;;5015196;28;20040;-74
2024/03/12 04:47:09;;;;;;;55.85;28.38;;;9.60;99.90;;;;;;5015192;28;20038;-74
2024/03/12 04:49:37;;;;;;;61.85;30.80;;;9.70;99.90;;;;;;5016626;28;20075;-74
2024/03/12 04:52:03;;;;;;;61.67;29.73;;;9.70;99.90;;;;;;5016983;28;20025;-74
2024/03/12 04:54:29;;;;;;;68.43;31.63;;;9.70;99.90;;;;;;5028691;28;20030;-74
2024/03/12 04:56:57;;;;;;;58.28;29.23;;;9.70;99.90;;;;;;5017941;28;20359;-74
2024/03/12 04:59:23;;;;;;;67.45;29.08;;;9.70;99.90;;;;;;5015006;28;20065;-74
2024/03/12 05:01:49;;;;;;;66.70;28.02;;;9.70;99.90;;;;;;5014779;28;20026;-74
2024/03/12 05:04:16;;;;;;;61.22;29.98;;;9.70;99.90;;;;;;5014875;28;20018;-74
2024/03/12 05:06:42;;;;;;;57.63;27.95;;;9.60;99.90;;;;;;5014763;28;20038;-74
2024/03/12 05:09:09;;;;;;;62.95;29.02;;;9.70;99.90;;;;;;4997337;28;20105;-74
2024/03/12 05:11:37;;;;;;;78.78;30.05;;;9.70;99.90;;;;;;5014969;28;20522;-74
2024/03/12 05:14:03;;;;;;;66.07;31.17;;;9.70;99.90;;;;;;5014761;28;20030;-74
2024/03/12 05:16:31;;;;;;;60.25;28.63;;;9.70;99.90;;;;;;5014747;28;20029;-74
2024/03/12 05:18:57;;;;;;;61.17;28.88;;;9.70;99.90;;;;;;5015605;28;20478;-74
2024/03/12 05:21:24;;;;;;;58.35;28.88;;;9.70;99.90;;;;;;5023917;28;20033;-74
2024/03/12 05:23:49;;;;;;;61.47;29.52;;;9.60;99.90;;;;;;5014400;28;20022;-74
2024/03/12 05:26:17;;;;;;;64.72;29.13;;;9.70;99.90;;;;;;5014343;28;20033;-74
2024/03/12 05:28:44;;;;;;;60.80;28.67;;;9.70;99.90;;;;;;5014222;28;20105;-74
2024/03/12 05:31:20;;;;;;;68.28;30.85;;;9.70;99.90;;;;;;5014742;28;20030;-74
2024/03/12 05:33:50;;;;;;;69.38;32.03;;;9.60;99.90;;;;;;4996507;28;20026;-74
2024/03/12 05:36:20;;;;;;;73.22;32.67;;;9.70;99.90;;;;;;5014457;28;20018;-74
2024/03/12 05:38:55;;;;;;;67.07;32.00;;;9.70;99.90;;;;;;4996331;28;20038;-74
2024/03/12 05:41:29;;;;;;;70.18;33.03;;;9.70;99.90;;;;;;5014319;28;20084;-74
2024/03/12 05:49:39;;;;;;;82.28;35.88;;;9.70;99.90;;;;;;5003763;28;20109;-74
2024/03/12 05:52:07;;;;;;;79.22;36.17;;;9.70;99.90;;;;;;5034006;28;20018;-74
2024/03/12 05:54:32;;;;;;;75.10;35.95;;;9.80;99.90;;;;;;5033716;28;20017;-74
2024/03/12 05:56:58;;;;;;;73.72;34.45;;;9.70;99.90;;;;;;5032482;28;20037;-74
2024/03/12 05:59:25;;;;;;;83.25;37.17;;;9.70;99.90;;;;;;5033984;28;20021;-74
2024/03/12 06:01:52;;;;;;;76.43;35.80;;;9.80;99.90;;;;;;5033495;28;20026;-73
2024/03/12 06:04:18;;;;;;;79.57;37.08;;;9.80;99.90;;;;;;5033611;28;20021;-76
2024/03/12 06:06:45;;;;;;;83.72;36.75;;;9.70;99.90;;;;;;5014884;28;20482;-75
2024/03/12 06:09:11;;;;;;;77.38;35.28;;;9.70;99.90;;;;;;5033183;28;20017;-76
2024/03/12 06:11:36;;;;;;;84.47;37.25;;;9.70;99.90;;;;;;5033390;28;20116;-75
2024/03/12 06:14:06;;;;;;;81.03;36.17;;;9.70;99.90;;;;;;5033594;28;20037;-75
2024/03/12 06:16:32;;;;;;;81.13;37.80;;;9.80;99.90;;;;;;5033679;28;20057;-75
2024/03/12 06:18:58;;;;;;;84.25;37.53;;;9.80;99.90;;;;;;5033482;28;20068;-75
2024/03/12 06:21:24;;;;;;;77.82;36.97;;;9.80;99.90;;;;;;5033569;28;20029;-75
2024/03/12 06:23:49;;;;;;;88.22;40.20;;;9.80;99.90;;;;;;5026421;28;20230;-76
2024/03/12 06:26:15;;;;;;;89.85;41.75;;;9.80;99.90;;;;;;5017335;28;20042;-75
2024/03/12 06:28:41;;;;;;;79.07;39.53;;;9.70;99.90;;;;;;5013037;28;20059;-75
2024/03/12 06:31:08;;;;;;;86.35;41.42;;;9.70;99.90;;;;;;5013563;28;20029;-75
2024/03/12 06:33:34;;;;;;;89.53;41.63;;;9.70;99.90;;;;;;5013489;28;20022;-76
2024/03/12 06:36:00;;;;;;;90.80;42.67;;;9.70;99.90;;;;;;5013499;28;20029;-76
2024/03/12 06:38:26;;;;;;;99.70;45.85;;;9.70;99.90;;;;;;5013144;28;20045;-75
2024/03/12 06:40:52;;;;;;;92.93;44.42;;;9.70;99.90;;;;;;5013177;28;20391;-75
2024/03/12 06:43:19;;;;;;;91.68;44.85;;;9.70;99.90;;;;;;5019715;28;20034;-75
2024/03/12 06:45:46;;;;;;;101.50;46.13;;;9.60;99.90;;;;;;5017370;28;20033;-75
2024/03/12 06:48:13;;;;;;;99.65;45.78;;;9.60;99.90;;;;;;5013230;28;20100;-75
2024/03/12 06:50:39;;;;;;;94.25;43.28;;;9.50;99.90;;;;;;5023222;28;20037;-75
2024/03/12 06:53:05;;;;;;;95.22;43.60;;;9.60;99.90;;;;;;5013765;28;20068;-75
2024/03/12 06:55:32;;;;;;;111.22;47.47;;;9.70;99.90;;;;;;5032755;28;20028;-75
2024/03/12 06:58:21;;;;;;;91.03;44.83;;;9.60;99.90;;;;;;5032591;28;20041;-75
2024/03/12 07:00:48;;;;;;;94.25;41.00;;;9.60;99.90;;;;;;5028528;28;20136;-74
2024/03/12 07:03:16;;;;;;;102.22;43.08;;;9.50;99.90;;;;;;5032386;28;20021;-74
2024/03/12 07:05:48;;;;;;;102.13;45.50;;;9.60;99.90;;;;;;5031842;28;20025;-74
2024/03/12 07:08:16;;;;;;;95.40;42.30;;;9.60;99.90;;;;;;5031540;28;20026;-75
2024/03/12 07:10:43;;;;;;;101.15;43.47;;;9.60;99.90;;;;;;5014977;28;20021;-75
2024/03/12 07:13:10;;;;;;;102.30;44.40;;;9.60;99.90;;;;;;5032370;28;20021;-74
2024/03/12 07:15:38;;;;;;;92.78;42.40;;;9.60;99.90;;;;;;5032278;28;20053;-74
2024/03/12 07:18:06;;;;;;;93.80;42.55;;;9.70;99.90;;;;;;5032173;28;20033;-74
2024/03/12 07:20:35;;;;;;;98.75;42.72;;;9.70;99.90;;;;;;5032504;28;20036;-74
2024/03/12 07:23:02;;;;;;;90.45;42.95;;;9.60;99.90;;;;;;5030271;28;20033;-73
2024/03/12 07:25:30;;;;;;;95.22;42.70;;;9.70;99.90;;;;;;5014415;28;20044;-74
2024/03/12 07:27:59;;;;;;;92.43;41.90;;;9.70;99.90;;;;;;5033747;28;20105;-73
2024/03/12 07:30:24;;;;;;;88.88;42.60;;;9.70;99.90;;;;;;5040722;28;20025;-73
2024/03/12 07:32:51;;;;;;;91.18;41.15;;;9.60;99.90;;;;;;5032086;28;20481;-72
2024/03/12 07:35:17;;;;;;;95.72;42.72;;;9.60;99.90;;;;;;5032200;28;20018;-74
2024/03/12 07:37:43;;;;;;;86.30;41.50;;;9.60;99.90;;;;;;5031955;28;20037;-73
2024/03/12 07:40:09;;;;;;;85.75;40.45;;;9.60;99.90;;;;;;5031157;28;20022;-74
2024/03/12 07:42:41;;;;;;;89.82;40.92;;;9.70;99.90;;;;;;5020522;28;20013;-74
2024/03/12 07:45:09;;;;;;;90.60;43.60;;;9.60;99.90;;;;;;5037226;28;20079;-74
2024/03/12 07:47:35;;;;;;;85.82;39.50;;;9.60;99.90;;;;;;5019763;28;20460;-74
2024/03/12 07:50:02;;;;;;;87.60;38.17;;;9.60;99.90;;;;;;5034575;28;20040;-76
2024/03/12 07:52:29;;;;;;;86.90;39.70;;;9.60;99.90;;;;;;5017779;28;20032;-74
2024/03/12 07:54:56;;;;;;;83.65;40.15;;;9.60;99.90;;;;;;5033253;28;20018;-75
2024/03/12 07:57:22;;;;;;;89.40;40.55;;;9.60;99.90;;;;;;5031436;28;20068;-75
2024/03/12 07:59:48;;;;;;;79.68;38.78;;;9.50;99.90;;;;;;5031593;28;20049;-76
2024/03/12 08:02:19;;;;;;;81.97;39.40;;;9.50;99.90;;;;;;5029740;28;20038;-76
2024/03/12 08:04:44;;;;;;;88.78;40.20;;;9.50;99.90;;;;;;5030646;28;20029;-75
2024/03/12 08:07:14;;;;;;;85.72;40.95;;;9.50;99.90;;;;;;5013511;28;20120;-76
2024/03/12 08:09:43;;;;;;;89.60;42.20;;;9.50;99.90;;;;;;5028503;28;20022;-76
2024/03/12 08:12:13;;;;;;;93.45;42.40;;;9.50;99.90;;;;;;5009707;28;20117;-77
2024/03/12 08:14:40;;;;;;;87.00;41.05;;;9.50;99.90;;;;;;5013696;28;20104;-77
2024/03/12 08:17:07;;;;;;;84.30;39.92;;;9.60;99.90;;;;;;5019556;28;20064;-75
2024/03/12 08:19:34;;;;;;;95.00;44.35;;;9.60;99.90;;;;;;5040340;28;20083;-76
2024/03/12 08:22:00;;;;;;;90.50;42.75;;;9.70;99.90;;;;;;5031182;28;20517;-74
2024/03/12 08:24:26;;;;;;;86.45;42.30;;;9.80;99.90;;;;;;5031427;28;20390;-74
2024/03/12 08:26:52;;;;;;;84.07;42.47;;;9.90;99.90;;;;;;5030846;28;20036;-74
2024/03/12 08:29:18;;;;;;;100.18;42.90;;;9.90;99.90;;;;;;5025233;28;20097;-73
2024/03/12 08:31:45;;;;;;;105.03;45.38;;;9.90;99.90;;;;;;5030868;28;20021;-74
2024/03/12 08:34:15;;;;;;;90.10;44.17;;;10.00;99.90;;;;;;5031206;28;20371;-75
2024/03/12 08:36:45;;;;;;;92.00;42.05;;;10.20;99.90;;;;;;5003278;28;20144;-75
2024/03/12 08:39:11;;;;;;;94.40;43.78;;;10.10;99.90;;;;;;5031193;28;20034;-75
2024/03/12 08:41:39;;;;;;;85.57;42.58;;;10.00;99.90;;;;;;5029878;28;20032;-75
2024/03/12 08:44:06;;;;;;;85.47;40.63;;;10.00;99.90;;;;;;5021209;28;20385;-76
2024/03/12 08:46:33;;;;;;;86.70;42.92;;;10.00;99.90;;;;;;5027661;28;20037;-74
2024/03/12 08:48:59;;;;;;;88.05;42.47;;;10.10;99.90;;;;;;5020853;28;20395;-74
2024/03/12 08:51:25;;;;;;;79.38;40.83;;;10.20;99.90;;;;;;5027967;28;20014;-74
2024/03/12 08:53:51;;;;;;;84.57;42.63;;;10.30;99.90;;;;;;5032715;28;20025;-74
2024/03/12 08:56:19;;;;;;;86.68;42.15;;;10.20;99.90;;;;;;5033429;28;20021;-74
2024/03/12 08:58:45;;;;;;;78.88;40.97;;;10.30;99.90;;;;;;5028136;28;20026;-74
2024/03/12 09:01:11;;;;;;;84.03;42.28;;;10.40;99.90;;;;;;5027134;28;20049;-74
2024/03/12 09:03:37;;;;;;;83.97;42.35;;;10.40;99.90;;;;;;5034448;28;20060;-74
2024/03/12 09:06:02;;;;;;;80.38;41.28;;;10.30;99.90;;;;;;5033274;28;20122;-74
2024/03/12 09:08:29;;;;;;;87.95;41.30;;;10.40;99.90;;;;;;5027445;28;20029;-74
2024/03/12 09:10:55;;;;;;;81.20;40.63;;;10.40;99.90;;;;;;5033157;28;20355;-74
2024/03/12 09:13:21;;;;;;;84.45;43.92;;;10.50;99.90;;;;;;5020572;28;20080;-74
2024/03/12 09:15:51;;;;;;;87.55;42.72;;;10.50;99.90;;;;;;5031175;28;20385;-75
2024/03/12 09:18:19;;;;;;;84.18;41.97;;;10.50;99.90;;;;;;5029912;28;20084;-74
2024/03/12 09:20:46;;;;;;;75.60;41.75;;;10.50;99.90;;;;;;5032842;28;20097;-75
2024/03/12 09:23:13;;;;;;;82.22;43.60;;;10.60;99.90;;;;;;5031664;28;20096;-75
2024/03/12 09:25:41;;;;;;;81.03;42.65;;;10.60;99.90;;;;;;5024744;28;20017;-75
2024/03/12 09:28:07;;;;;;;84.80;41.60;;;10.70;99.90;;;;;;5033429;28;20029;-74
2024/03/12 09:30:34;;;;;;;86.13;42.75;;;10.80;99.90;;;;;;5031057;28;20027;-75
2024/03/12 09:33:00;;;;;;;73.80;39.22;;;10.70;99.90;;;;;;5026289;28;20039;-75
2024/03/12 09:35:26;;;;;;;78.68;40.65;;;10.70;99.90;;;;;;5034099;28;20067;-75
2024/03/12 09:37:52;;;;;;;72.40;39.63;;;10.90;99.90;;;;;;5015976;28;20048;-74
2024/03/12 09:40:17;;;;;;;74.35;39.80;;;10.80;99.90;;;;;;5033967;28;20536;-75
2024/03/12 09:42:47;;;;;;;72.93;39.03;;;10.90;99.90;;;;;;5033674;28;20420;-75
2024/03/12 09:45:13;;;;;;;83.35;40.60;;;10.80;99.90;;;;;;5034136;28;20040;-75
2024/03/12 09:47:40;;;;;;;77.15;40.60;;;10.90;99.90;;;;;;5031936;28;20525;-75
2024/03/12 09:50:11;;;;;;;70.07;37.83;;;10.90;99.90;;;;;;5033411;28;20056;-74
2024/03/12 09:52:40;;;;;;;73.45;37.10;;;10.90;99.90;;;;;;5026673;28;20118;-76
2024/03/12 09:55:10;;;;;;;69.57;36.28;;;10.90;99.90;;;;;;5030912;28;20486;-76
2024/03/12 09:57:44;;;;;;;69.90;38.30;;;11.10;99.90;;;;;;5002817;28;20021;-75
2024/03/12 10:00:27;;;;;;;64.57;35.40;;;11.20;99.90;;;;;;5018125;28;20470;-76
2024/03/12 10:02:55;;;;;;;67.32;35.28;;;11.20;99.90;;;;;;5023136;28;20487;-75
2024/03/12 10:05:22;;;;;;;62.92;35.65;;;11.10;99.90;;;;;;5021579;28;20067;-76
2024/03/12 10:08:06;;;;;;;61.30;33.13;;;11.10;99.90;;;;;;5014917;28;20128;-75
2024/03/12 10:10:35;;;;;;;60.28;33.17;;;11.00;99.90;;;;;;5019764;28;20049;-75
2024/03/12 10:13:03;;;;;;;69.00;35.85;;;11.10;99.90;;;;;;5020680;28;20027;-75
2024/03/12 10:15:30;;;;;;;64.07;34.33;;;11.00;99.90;;;;;;5019174;28;20014;-75
2024/03/12 10:17:59;;;;;;;66.75;34.35;;;11.00;99.90;;;;;;5018576;28;20409;-76
2024/03/12 10:20:30;;;;;;;66.32;35.85;;;10.90;99.90;;;;;;5019544;28;20025;-75
2024/03/12 10:23:15;;;;;;;60.72;31.63;;;10.90;99.90;;;;;;5019145;28;20489;-76
2024/03/12 10:25:42;;;;;;;65.45;34.92;;;10.90;99.90;;;;;;5020083;28;20088;-76
2024/03/12 10:28:07;;;;;;;64.32;35.15;;;10.80;99.90;;;;;;5020904;28;20021;-74
2024/03/12 10:30:35;;;;;;;60.40;33.13;;;10.70;99.90;;;;;;5020596;28;20071;-75
2024/03/12 10:33:12;;;;;;;69.13;34.78;;;10.60;99.90;;;;;;5018970;28;20417;-75
2024/03/12 10:35:38;;;;;;;62.88;33.30;;;10.60;99.90;;;;;;5023714;28;20030;-75
2024/03/12 10:38:06;;;;;;;66.80;34.50;;;10.60;99.90;;;;;;5017796;28;20036;-77
2024/03/12 10:40:32;;;;;;;71.47;35.92;;;10.50;99.90;;;;;;5016859;28;20026;-75
2024/03/12 10:42:58;;;;;;;65.25;37.78;;;10.60;99.90;;;;;;5021361;28;20013;-75
2024/03/12 10:45:24;;;;;;;65.88;34.50;;;10.60;99.90;;;;;;5015989;28;20033;-75
2024/03/12 10:47:50;;;;;;;67.45;35.20;;;10.70;99.90;;;;;;5014767;28;20026;-76
2024/03/12 10:50:17;;;;;;;75.32;34.63;;;10.70;99.90;;;;;;5020496;28;20037;-76
2024/03/12 10:52:45;;;;;;;69.50;35.95;;;10.70;99.90;;;;;;5017807;28;20411;-76
2024/03/12 10:55:21;;;;;;;72.57;36.05;;;10.70;99.90;;;;;;5022050;28;20022;-77
2024/03/12 10:57:54;;;;;;;76.15;38.13;;;10.70;99.90;;;;;;5017590;28;20052;-76
2024/03/12 11:00:26;;;;;;;69.88;36.20;;;10.70;99.90;;;;;;5014038;28;20036;-76
2024/03/12 11:02:55;;;;;;;76.80;37.95;;;10.70;99.90;;;;;;4999117;28;20014;-76
2024/03/12 11:05:24;;;;;;;72.72;35.70;;;10.70;99.90;;;;;;5015967;28;20040;-76
2024/03/12 11:07:53;;;;;;;75.15;38.20;;;10.80;99.90;;;;;;5015566;28;20026;-77
2024/03/12 11:10:19;;;;;;;63.75;33.53;;;10.80;99.90;;;;;;5014869;28;20022;-77
2024/03/12 11:12:45;;;;;;;68.95;35.55;;;10.80;99.90;;;;;;5014442;28;20430;-76
2024/03/12 11:15:13;;;;;;;67.38;35.70;;;10.80;99.90;;;;;;4992669;28;20029;-76
2024/03/12 11:17:48;;;;;;;70.25;35.25;;;10.80;99.90;;;;;;5017383;28;20026;-75
2024/03/12 11:20:18;;;;;;;72.88;36.45;;;10.80;99.90;;;;;;5017244;28;20022;-76
2024/03/12 11:22:44;;;;;;;71.03;35.40;;;11.00;99.90;;;;;;5001150;28;20709;-76
2024/03/12 11:25:17;;;;;;;65.78;35.45;;;10.90;99.90;;;;;;5014891;28;20032;-75
2024/03/12 11:27:46;;;;;;;69.18;36.33;;;11.00;99.90;;;;;;5017629;28;20042;-75
2024/03/12 11:30:14;;;;;;;65.22;34.72;;;11.10;99.90;;;;;;5016520;28;20057;-76
2024/03/12 11:32:41;;;;;;;70.28;35.70;;;11.10;99.90;;;;;;5022011;28;20095;-77
2024/03/12 11:35:16;;;;;;;66.35;34.75;;;11.20;99.90;;;;;;5015460;28;20033;-75
2024/03/12 11:37:46;;;;;;;68.72;35.83;;;11.30;99.90;;;;;;5016250;28;20095;-75
2024/03/12 11:40:37;;;;;;;75.18;37.90;;;11.50;99.90;;;;;;5018824;28;20083;-76
2024/03/12 11:43:03;;;;;;;66.38;36.03;;;11.50;99.90;;;;;;5017802;28;20029;-76
2024/03/12 11:45:46;;;;;;;65.68;35.80;;;11.50;99.90;;;;;;5019139;28;20032;-77
2024/03/12 11:48:18;;;;;;;68.10;35.58;;;11.60;99.90;;;;;;5020589;28;20037;-76
2024/03/12 11:50:51;;;;;;;66.97;35.30;;;11.60;99.90;;;;;;5018089;28;20021;-76
2024/03/12 11:53:22;;;;;;;65.45;35.17;;;11.70;99.90;;;;;;5021213;28;20076;-76
2024/03/12 11:56:06;;;;;;;65.30;34.60;;;11.70;99.90;;;;;;5018218;28;20104;-76
2024/03/12 11:58:38;;;;;;;66.80;35.17;;;11.70;99.90;;;;;;5018116;28;20104;-76
2024/03/12 12:01:06;;;;;;;60.97;34.03;;;11.70;99.90;;;;;;5019077;28;20033;-75
2024/03/12 12:03:35;;;;;;;64.78;34.45;;;11.80;99.90;;;;;;5018029;28;20094;-75
2024/03/12 12:06:02;;;;;;;70.60;37.42;;;11.90;99.90;;;;;;4998849;28;20486;-76
2024/03/12 12:08:30;;;;;;;65.65;35.72;;;12.00;99.90;;;;;;5018301;28;20026;-75
2024/03/12 12:11:00;;;;;;;67.90;35.50;;;11.90;99.90;;;;;;5018142;28;20009;-75
2024/03/12 12:13:27;;;;;;;64.22;33.10;;;12.00;99.90;;;;;;5015958;28;20037;-75
2024/03/12 12:15:56;;;;;;;63.25;34.72;;;12.00;99.90;;;;;;5017770;28;20128;-75
2024/03/12 12:18:22;;;;;;;63.80;33.40;;;12.10;99.90;;;;;;5018392;28;20049;-75
2024/03/12 12:20:48;;;;;;;66.53;35.55;;;12.10;99.90;;;;;;5014170;28;20017;-75
2024/03/12 12:23:14;;;;;;;70.10;35.88;;;12.20;99.90;;;;;;5018666;28;20033;-76
2024/03/12 12:25:41;;;;;;;70.43;37.15;;;12.30;99.90;;;;;;5013249;28;20037;-77
2024/03/12 12:28:08;;;;;;;71.88;36.55;;;12.30;99.90;;;;;;5016899;28;20092;-75
2024/03/12 12:30:35;;;;;;;81.70;37.45;;;12.40;99.90;;;;;;5018753;28;20109;-75
2024/03/12 12:33:02;;;;;;;74.68;37.90;;;12.40;99.90;;;;;;5018477;28;20029;-77
2024/03/12 12:35:29;;;;;;;64.50;35.10;;;12.40;99.90;;;;;;5019065;28;20024;-85
2024/03/12 12:37:55;;;;;;;68.55;35.88;;;12.50;99.90;;;;;;5026639;28;20038;-83
2024/03/12 12:40:21;;;;;;;68.40;34.25;;;12.60;99.90;;;;;;5016123;28;20021;-82